sensor_id;sensor_type;location;lat;lon;timestamp;temperature;humidity
60473;DHT22;46318;52.716;6.444;2023-01-04T00:01:15;7.80;99.90
60473;DHT22;46318;52.716;6.444;2023-01-04T00:03:43;7.90;99.90
60473;DHT22;46318;52.716;6.444;2023-01-04T00:06:09;7.80;99.90
60473;DHT22;46318;52.716;6.444;2023-01-04T00:08:37;7.90;99.90
60473;DHT22;46318;52.716;6.444;2023-01-04T00:11:04;7.90;99.90
60473;DHT22;46318;52.716;6.444;2023-01-04T00:13:31;7.90;99.90
60473;DHT22;46318;52.716;6.444;2023-01-04T00:15:57;7.90;99.90
60473;DHT22;46318;52.716;6.444;2023-01-04T00:18:23;7.90;99.90
60473;DHT22;46318;52.716;6.444;2023-01-04T00:20:49;7.90;99.90
60473;DHT22;46318;52.716;6.444;2023-01-04T00:23:15;7.90;99.90
60473;DHT22;46318;52.716;6.444;2023-01-04T00:25:41;7.90;99.90
60473;DHT22;46318;52.716;6.444;2023-01-04T00:28:06;7.90;99.90
60473;DHT22;46318;52.716;6.444;2023-01-04T00:30:32;7.90;99.90
60473;DHT22;46318;52.716;6.444;2023-01-04T00:32:58;7.90;99.90
60473;DHT22;46318;52.716;6.444;2023-01-04T00:35:24;7.90;99.90
60473;DHT22;46318;52.716;6.444;2023-01-04T00:37:50;7.90;99.90
60473;DHT22;46318;52.716;6.444;2023-01-04T00:40:15;7.90;99.90
60473;DHT22;46318;52.716;6.444;2023-01-04T00:42:41;7.90;99.90
60473;DHT22;46318;52.716;6.444;2023-01-04T00:45:07;7.90;99.90
60473;DHT22;46318;52.716;6.444;2023-01-04T00:47:33;7.90;99.90
60473;DHT22;46318;52.716;6.444;2023-01-04T00:49:59;7.90;99.90
60473;DHT22;46318;52.716;6.444;2023-01-04T00:52:24;7.90;99.90
60473;DHT22;46318;52.716;6.444;2023-01-04T00:54:50;7.90;99.90
60473;DHT22;46318;52.716;6.444;2023-01-04T00:57:16;7.90;99.90
60473;DHT22;46318;52.716;6.444;2023-01-04T00:59:42;7.90;99.90
60473;DHT22;46318;52.716;6.444;2023-01-04T01:02:07;7.90;99.90
60473;DHT22;46318;52.716;6.444;2023-01-04T01:04:33;7.80;99.90
60473;DHT22;46318;52.716;6.444;2023-01-04T01:06:59;7.90;99.90
60473;DHT22;46318;52.716;6.444;2023-01-04T01:09:25;7.90;99.90
60473;DHT22;46318;52.716;6.444;2023-01-04T01:11:51;7.90;99.90
60473;DHT22;46318;52.716;6.444;2023-01-04T01:14:18;7.90;99.90
60473;DHT22;46318;52.716;6.444;2023-01-04T01:16:46;7.90;99.90
60473;DHT22;46318;52.716;6.444;2023-01-04T01:19:12;7.80;99.90
60473;DHT22;46318;52.716;6.444;2023-01-04T01:21:38;7.90;99.90
60473;DHT22;46318;52.716;6.444;2023-01-04T01:24:03;7.90;99.90
60473;DHT22;46318;52.716;6.444;2023-01-04T01:26:30;7.80;99.90
60473;DHT22;46318;52.716;6.444;2023-01-04T01:28:55;7.90;99.90
60473;DHT22;46318;52.716;6.444;2023-01-04T01:31:25;7.80;99.90
60473;DHT22;46318;52.716;6.444;2023-01-04T01:33:52;7.90;99.90
60473;DHT22;46318;52.716;6.444;2023-01-04T01:36:19;7.90;99.90
60473;DHT22;46318;52.716;6.444;2023-01-04T01:38:46;7.90;99.90
60473;DHT22;46318;52.716;6.444;2023-01-04T01:41:20;7.90;99.90
60473;DHT22;46318;52.716;6.444;2023-01-04T01:43:48;7.90;99.90
60473;DHT22;46318;52.716;6.444;2023-01-04T01:46:15;7.90;99.90
60473;DHT22;46318;52.716;6.444;2023-01-04T01:48:44;7.90;99.90
60473;DHT22;46318;52.716;6.444;2023-01-04T01:51:10;7.90;99.90
60473;DHT22;46318;52.716;6.444;2023-01-04T01:53:36;7.90;99.90
60473;DHT22;46318;52.716;6.444;2023-01-04T01:56:05;7.90;99.90
60473;DHT22;46318;52.716;6.444;2023-01-04T01:58:33;7.90;99.90
60473;DHT22;46318;52.716;6.444;2023-01-04T02:01:02;7.90;99.90
60473;DHT22;46318;52.716;6.444;2023-01-04T02:03:35;7.90;99.90
60473;DHT22;46318;52.716;6.444;2023-01-04T02:06:04;7.90;99.90
60473;DHT22;46318;52.716;6.444;2023-01-04T02:08:32;8.00;99.90
60473;DHT22;46318;52.716;6.444;2023-01-04T02:10:58;8.00;99.90
60473;DHT22;46318;52.716;6.444;2023-01-04T02:13:25;8.00;99.90
60473;DHT22;46318;52.716;6.444;2023-01-04T02:18:52;8.00;99.90
60473;DHT22;46318;52.716;6.444;2023-01-04T02:21:39;8.00;99.90
60473;DHT22;46318;52.716;6.444;2023-01-04T02:24:41;8.00;99.90
60473;DHT22;46318;52.716;6.444;2023-01-04T02:30:13;8.00;99.90
60473;DHT22;46318;52.716;6.444;2023-01-04T02:35:42;8.10;99.90
60473;DHT22;46318;52.716;6.444;2023-01-04T02:38:21;8.10;99.90
60473;DHT22;46318;52.716;6.444;2023-01-04T02:43:49;8.20;99.90
60473;DHT22;46318;52.716;6.444;2023-01-04T02:46:36;8.20;99.90
60473;DHT22;46318;52.716;6.444;2023-01-04T02:49:06;8.20;99.90
60473;DHT22;46318;52.716;6.444;2023-01-04T02:51:50;8.20;99.90
60473;DHT22;46318;52.716;6.444;2023-01-04T02:54:17;8.20;99.90
60473;DHT22;46318;52.716;6.444;2023-01-04T03:00:05;8.20;99.90
60473;DHT22;46318;52.716;6.444;2023-01-04T03:11:11;8.40;99.90
60473;DHT22;46318;52.716;6.444;2023-01-04T03:14:19;8.40;99.90
60473;DHT22;46318;52.716;6.444;2023-01-04T03:16:45;8.50;99.90
60473;DHT22;46318;52.716;6.444;2023-01-04T03:19:11;8.50;99.90
60473;DHT22;46318;52.716;6.444;2023-01-04T03:21:41;8.50;99.90
60473;DHT22;46318;52.716;6.444;2023-01-04T03:24:08;8.60;99.90
60473;DHT22;46318;52.716;6.444;2023-01-04T03:27:03;8.60;99.90
60473;DHT22;46318;52.716;6.444;2023-01-04T03:30:01;8.60;99.90
60473;DHT22;46318;52.716;6.444;2023-01-04T03:32:53;8.60;99.90
60473;DHT22;46318;52.716;6.444;2023-01-04T03:35:41;8.70;99.90
60473;DHT22;46318;52.716;6.444;2023-01-04T03:38:14;8.70;99.90
60473;DHT22;46318;52.716;6.444;2023-01-04T03:41:44;8.70;99.90
60473;DHT22;46318;52.716;6.444;2023-01-04T03:44:11;8.80;99.90
60473;DHT22;46318;52.716;6.444;2023-01-04T03:47:17;8.80;99.90
60473;DHT22;46318;52.716;6.444;2023-01-04T03:50:21;8.80;99.90
60473;DHT22;46318;52.716;6.444;2023-01-04T03:52:48;8.80;99.90
60473;DHT22;46318;52.716;6.444;2023-01-04T03:55:15;8.80;99.90
60473;DHT22;46318;52.716;6.444;2023-01-04T03:57:42;8.90;99.90
60473;DHT22;46318;52.716;6.444;2023-01-04T04:00:10;8.90;99.90
60473;DHT22;46318;52.716;6.444;2023-01-04T04:02:39;8.90;99.90
60473;DHT22;46318;52.716;6.444;2023-01-04T04:05:06;8.90;99.90
60473;DHT22;46318;52.716;6.444;2023-01-04T04:07:51;8.90;99.90
60473;DHT22;46318;52.716;6.444;2023-01-04T04:10:35;9.00;99.90
60473;DHT22;46318;52.716;6.444;2023-01-04T04:13:01;9.00;99.90
60473;DHT22;46318;52.716;6.444;2023-01-04T04:15:26;9.00;99.90
60473;DHT22;46318;52.716;6.444;2023-01-04T04:17:52;9.00;99.90
60473;DHT22;46318;52.716;6.444;2023-01-04T04:20:18;9.10;99.90
60473;DHT22;46318;52.716;6.444;2023-01-04T04:22:43;9.10;99.90
60473;DHT22;46318;52.716;6.444;2023-01-04T04:25:09;9.10;99.90
60473;DHT22;46318;52.716;6.444;2023-01-04T04:27:35;9.10;99.90
60473;DHT22;46318;52.716;6.444;2023-01-04T04:30:00;9.10;99.90
60473;DHT22;46318;52.716;6.444;2023-01-04T04:32:27;9.20;99.90
60473;DHT22;46318;52.716;6.444;2023-01-04T04:34:52;9.20;99.90
60473;DHT22;46318;52.716;6.444;2023-01-04T04:37:18;9.20;99.90
60473;DHT22;46318;52.716;6.444;2023-01-04T04:39:44;9.20;99.90
60473;DHT22;46318;52.716;6.444;2023-01-04T04:42:10;9.20;99.90
60473;DHT22;46318;52.716;6.444;2023-01-04T04:44:35;9.20;99.90
60473;DHT22;46318;52.716;6.444;2023-01-04T04:47:01;9.20;99.90
60473;DHT22;46318;52.716;6.444;2023-01-04T04:49:27;9.30;99.90
60473;DHT22;46318;52.716;6.444;2023-01-04T04:51:52;9.30;99.90
60473;DHT22;46318;52.716;6.444;2023-01-04T04:54:19;9.30;99.90
60473;DHT22;46318;52.716;6.444;2023-01-04T04:56:47;9.40;99.90
60473;DHT22;46318;52.716;6.444;2023-01-04T04:59:13;9.40;99.90
60473;DHT22;46318;52.716;6.444;2023-01-04T05:01:39;9.40;99.90
60473;DHT22;46318;52.716;6.444;2023-01-04T05:04:05;9.40;99.90
60473;DHT22;46318;52.716;6.444;2023-01-04T05:06:31;9.40;99.90
60473;DHT22;46318;52.716;6.444;2023-01-04T05:08:57;9.50;99.90
60473;DHT22;46318;52.716;6.444;2023-01-04T05:11:22;9.50;99.90
60473;DHT22;46318;52.716;6.444;2023-01-04T05:14:07;9.50;99.90
60473;DHT22;46318;52.716;6.444;2023-01-04T05:16:33;9.50;99.90
60473;DHT22;46318;52.716;6.444;2023-01-04T05:18:59;9.50;99.90
60473;DHT22;46318;52.716;6.444;2023-01-04T05:21:25;9.60;99.90
60473;DHT22;46318;52.716;6.444;2023-01-04T05:23:51;9.60;99.90
60473;DHT22;46318;52.716;6.444;2023-01-04T05:26:16;9.60;99.90
60473;DHT22;46318;52.716;6.444;2023-01-04T05:28:42;9.70;99.90
60473;DHT22;46318;52.716;6.444;2023-01-04T05:31:08;9.70;99.90
60473;DHT22;46318;52.716;6.444;2023-01-04T05:33:34;9.70;99.90
60473;DHT22;46318;52.716;6.444;2023-01-04T05:36:00;9.70;99.90
60473;DHT22;46318;52.716;6.444;2023-01-04T05:38:27;9.70;99.90
60473;DHT22;46318;52.716;6.444;2023-01-04T05:40:53;9.80;99.90
60473;DHT22;46318;52.716;6.444;2023-01-04T05:43:19;9.80;99.90
60473;DHT22;46318;52.716;6.444;2023-01-04T05:45:47;9.90;99.90
60473;DHT22;46318;52.716;6.444;2023-01-04T05:48:14;9.90;99.90
60473;DHT22;46318;52.716;6.444;2023-01-04T05:50:40;9.90;99.90
60473;DHT22;46318;52.716;6.444;2023-01-04T05:53:06;10.00;99.90
60473;DHT22;46318;52.716;6.444;2023-01-04T05:55:32;10.00;99.90
60473;DHT22;46318;52.716;6.444;2023-01-04T05:57:58;10.00;99.90
60473;DHT22;46318;52.716;6.444;2023-01-04T06:00:24;10.00;99.90
60473;DHT22;46318;52.716;6.444;2023-01-04T06:02:50;10.10;99.90
60473;DHT22;46318;52.716;6.444;2023-01-04T06:05:20;10.10;99.90
60473;DHT22;46318;52.716;6.444;2023-01-04T06:07:46;10.10;99.90
60473;DHT22;46318;52.716;6.444;2023-01-04T06:10:13;10.10;99.90
60473;DHT22;46318;52.716;6.444;2023-01-04T06:12:39;10.10;99.90
60473;DHT22;46318;52.716;6.444;2023-01-04T06:15:05;10.10;99.90
60473;DHT22;46318;52.716;6.444;2023-01-04T06:17:32;10.20;99.90
60473;DHT22;46318;52.716;6.444;2023-01-04T06:19:58;10.20;99.90
60473;DHT22;46318;52.716;6.444;2023-01-04T06:22:24;10.20;99.90
60473;DHT22;46318;52.716;6.444;2023-01-04T06:24:52;10.20;99.90
60473;DHT22;46318;52.716;6.444;2023-01-04T06:27:17;10.20;99.90
60473;DHT22;46318;52.716;6.444;2023-01-04T06:29:43;10.20;99.90
60473;DHT22;46318;52.716;6.444;2023-01-04T06:32:09;10.30;99.90
60473;DHT22;46318;52.716;6.444;2023-01-04T06:34:35;10.30;99.90
60473;DHT22;46318;52.716;6.444;2023-01-04T06:37:01;10.30;99.90
60473;DHT22;46318;52.716;6.444;2023-01-04T06:39:27;10.30;99.90
60473;DHT22;46318;52.716;6.444;2023-01-04T06:41:52;10.30;99.90
60473;DHT22;46318;52.716;6.444;2023-01-04T06:44:18;10.30;99.90
60473;DHT22;46318;52.716;6.444;2023-01-04T06:46:44;10.30;99.90
60473;DHT22;46318;52.716;6.444;2023-01-04T06:49:09;10.30;99.90
60473;DHT22;46318;52.716;6.444;2023-01-04T06:51:35;10.30;99.90
60473;DHT22;46318;52.716;6.444;2023-01-04T06:54:01;10.30;99.90
60473;DHT22;46318;52.716;6.444;2023-01-04T06:56:27;10.30;99.90
60473;DHT22;46318;52.716;6.444;2023-01-04T06:58:52;10.30;99.90
60473;DHT22;46318;52.716;6.444;2023-01-04T07:01:18;10.30;99.90
60473;DHT22;46318;52.716;6.444;2023-01-04T07:03:44;10.30;99.90
60473;DHT22;46318;52.716;6.444;2023-01-04T07:06:09;10.40;99.90
60473;DHT22;46318;52.716;6.444;2023-01-04T07:08:35;10.40;99.90
60473;DHT22;46318;52.716;6.444;2023-01-04T07:11:01;10.40;99.90
60473;DHT22;46318;52.716;6.444;2023-01-04T07:13:27;10.40;99.90
60473;DHT22;46318;52.716;6.444;2023-01-04T07:15:53;10.40;99.90
60473;DHT22;46318;52.716;6.444;2023-01-04T07:18:19;10.40;99.90
60473;DHT22;46318;52.716;6.444;2023-01-04T07:20:45;10.40;99.90
60473;DHT22;46318;52.716;6.444;2023-01-04T07:23:11;10.40;99.90
60473;DHT22;46318;52.716;6.444;2023-01-04T07:25:37;10.40;99.90
60473;DHT22;46318;52.716;6.444;2023-01-04T07:28:03;10.50;99.90
60473;DHT22;46318;52.716;6.444;2023-01-04T07:30:29;10.50;99.90
60473;DHT22;46318;52.716;6.444;2023-01-04T07:32:55;10.50;99.90
60473;DHT22;46318;52.716;6.444;2023-01-04T07:35:21;10.50;99.90
60473;DHT22;46318;52.716;6.444;2023-01-04T07:37:47;10.50;99.90
60473;DHT22;46318;52.716;6.444;2023-01-04T07:40:13;10.50;99.90
60473;DHT22;46318;52.716;6.444;2023-01-04T07:42:39;10.50;99.90
60473;DHT22;46318;52.716;6.444;2023-01-04T07:45:05;10.50;99.90
60473;DHT22;46318;52.716;6.444;2023-01-04T07:47:31;10.50;99.90
60473;DHT22;46318;52.716;6.444;2023-01-04T07:49:57;10.60;99.90
60473;DHT22;46318;52.716;6.444;2023-01-04T07:52:27;10.60;99.90
60473;DHT22;46318;52.716;6.444;2023-01-04T07:54:53;10.50;99.90
60473;DHT22;46318;52.716;6.444;2023-01-04T07:57:18;10.50;99.90
60473;DHT22;46318;52.716;6.444;2023-01-04T07:59:47;10.60;99.90
60473;DHT22;46318;52.716;6.444;2023-01-04T08:02:13;10.60;99.90
60473;DHT22;46318;52.716;6.444;2023-01-04T08:04:39;10.60;99.90
60473;DHT22;46318;52.716;6.444;2023-01-04T08:07:07;10.60;99.90
60473;DHT22;46318;52.716;6.444;2023-01-04T08:09:33;10.60;99.90
60473;DHT22;46318;52.716;6.444;2023-01-04T08:11:59;10.60;99.90
60473;DHT22;46318;52.716;6.444;2023-01-04T08:14:25;10.70;99.90
60473;DHT22;46318;52.716;6.444;2023-01-04T08:16:50;10.70;99.90
60473;DHT22;46318;52.716;6.444;2023-01-04T08:19:17;10.70;99.90
60473;DHT22;46318;52.716;6.444;2023-01-04T08:21:45;10.70;99.90
60473;DHT22;46318;52.716;6.444;2023-01-04T08:24:11;10.70;99.90
60473;DHT22;46318;52.716;6.444;2023-01-04T08:26:38;10.70;99.90
60473;DHT22;46318;52.716;6.444;2023-01-04T08:29:04;10.70;99.90
60473;DHT22;46318;52.716;6.444;2023-01-04T08:31:31;10.70;99.90
60473;DHT22;46318;52.716;6.444;2023-01-04T08:33:58;10.80;99.90
60473;DHT22;46318;52.716;6.444;2023-01-04T08:36:27;10.80;99.90
60473;DHT22;46318;52.716;6.444;2023-01-04T08:38:55;10.80;99.90
60473;DHT22;46318;52.716;6.444;2023-01-04T08:41:24;10.80;99.90
60473;DHT22;46318;52.716;6.444;2023-01-04T08:43:50;10.80;99.90
60473;DHT22;46318;52.716;6.444;2023-01-04T08:46:16;10.80;99.90
60473;DHT22;46318;52.716;6.444;2023-01-04T08:48:42;10.80;99.90
60473;DHT22;46318;52.716;6.444;2023-01-04T08:51:12;10.80;99.90
60473;DHT22;46318;52.716;6.444;2023-01-04T08:53:40;10.90;99.90
60473;DHT22;46318;52.716;6.444;2023-01-04T08:56:06;10.90;99.90
60473;DHT22;46318;52.716;6.444;2023-01-04T08:58:33;10.90;99.90
60473;DHT22;46318;52.716;6.444;2023-01-04T09:01:04;10.90;99.90
60473;DHT22;46318;52.716;6.444;2023-01-04T09:03:36;10.90;99.90
60473;DHT22;46318;52.716;6.444;2023-01-04T09:06:09;10.90;99.90
60473;DHT22;46318;52.716;6.444;2023-01-04T09:08:37;10.90;99.90
60473;DHT22;46318;52.716;6.444;2023-01-04T09:11:05;10.90;99.90
60473;DHT22;46318;52.716;6.444;2023-01-04T09:13:35;10.90;99.90
60473;DHT22;46318;52.716;6.444;2023-01-04T09:16:01;10.90;99.90
60473;DHT22;46318;52.716;6.444;2023-01-04T09:18:29;10.90;99.90
60473;DHT22;46318;52.716;6.444;2023-01-04T09:20:55;10.90;99.90
60473;DHT22;46318;52.716;6.444;2023-01-04T09:23:21;10.90;99.90
60473;DHT22;46318;52.716;6.444;2023-01-04T09:25:47;10.90;99.90
60473;DHT22;46318;52.716;6.444;2023-01-04T09:28:13;11.00;99.90
60473;DHT22;46318;52.716;6.444;2023-01-04T09:30:39;11.00;99.90
60473;DHT22;46318;52.716;6.444;2023-01-04T09:33:05;11.00;99.90
60473;DHT22;46318;52.716;6.444;2023-01-04T09:35:31;11.00;99.90
60473;DHT22;46318;52.716;6.444;2023-01-04T09:37:57;11.00;99.90
60473;DHT22;46318;52.716;6.444;2023-01-04T09:40:29;11.00;99.90
60473;DHT22;46318;52.716;6.444;2023-01-04T09:42:56;11.00;99.90
60473;DHT22;46318;52.716;6.444;2023-01-04T09:45:23;11.00;99.90
60473;DHT22;46318;52.716;6.444;2023-01-04T09:47:56;11.00;99.90
60473;DHT22;46318;52.716;6.444;2023-01-04T09:50:42;11.00;99.90
60473;DHT22;46318;52.716;6.444;2023-01-04T09:58:48;11.10;99.90
60473;DHT22;46318;52.716;6.444;2023-01-04T10:01:21;11.10;99.90
60473;DHT22;46318;52.716;6.444;2023-01-04T10:04:01;11.10;99.90
60473;DHT22;46318;52.716;6.444;2023-01-04T10:06:42;11.10;99.90
60473;DHT22;46318;52.716;6.444;2023-01-04T10:09:12;11.10;99.90
60473;DHT22;46318;52.716;6.444;2023-01-04T10:25:49;11.10;99.90
60473;DHT22;46318;52.716;6.444;2023-01-04T10:31:15;11.10;99.90
60473;DHT22;46318;52.716;6.444;2023-01-04T10:33:46;11.10;99.90
60473;DHT22;46318;52.716;6.444;2023-01-04T10:36:16;11.10;99.90
60473;DHT22;46318;52.716;6.444;2023-01-04T10:38:43;11.10;99.90
60473;DHT22;46318;52.716;6.444;2023-01-04T10:41:10;11.10;99.90
60473;DHT22;46318;52.716;6.444;2023-01-04T10:43:43;11.10;99.90
60473;DHT22;46318;52.716;6.444;2023-01-04T10:48:51;11.10;99.90
60473;DHT22;46318;52.716;6.444;2023-01-04T10:51:20;11.10;99.90
60473;DHT22;46318;52.716;6.444;2023-01-04T10:54:05;11.20;99.90
60473;DHT22;46318;52.716;6.444;2023-01-04T10:56:47;11.20;99.90
60473;DHT22;46318;52.716;6.444;2023-01-04T10:59:37;11.20;99.90
60473;DHT22;46318;52.716;6.444;2023-01-04T11:02:18;11.20;99.90
60473;DHT22;46318;52.716;6.444;2023-01-04T11:05:01;11.20;99.90
60473;DHT22;46318;52.716;6.444;2023-01-04T11:10:22;11.30;99.90
60473;DHT22;46318;52.716;6.444;2023-01-04T11:12:52;11.30;99.90
60473;DHT22;46318;52.716;6.444;2023-01-04T11:15:17;11.30;99.90
60473;DHT22;46318;52.716;6.444;2023-01-04T11:17:43;11.40;99.90
60473;DHT22;46318;52.716;6.444;2023-01-04T11:20:10;11.40;99.90
60473;DHT22;46318;52.716;6.444;2023-01-04T11:22:52;11.40;99.90
60473;DHT22;46318;52.716;6.444;2023-01-04T11:25:19;11.40;99.90
60473;DHT22;46318;52.716;6.444;2023-01-04T11:27:47;11.50;99.90
60473;DHT22;46318;52.716;6.444;2023-01-04T11:30:30;11.50;99.90
60473;DHT22;46318;52.716;6.444;2023-01-04T11:33:12;11.50;99.90
60473;DHT22;46318;52.716;6.444;2023-01-04T11:35:41;11.50;99.90
60473;DHT22;46318;52.716;6.444;2023-01-04T11:38:22;11.50;99.90
60473;DHT22;46318;52.716;6.444;2023-01-04T11:43:35;11.60;99.90
60473;DHT22;46318;52.716;6.444;2023-01-04T11:46:03;11.60;99.90
60473;DHT22;46318;52.716;6.444;2023-01-04T11:48:30;11.60;99.90
60473;DHT22;46318;52.716;6.444;2023-01-04T11:50:58;11.60;99.90
60473;DHT22;46318;52.716;6.444;2023-01-04T11:53:34;11.60;99.90
60473;DHT22;46318;52.716;6.444;2023-01-04T11:56:09;11.60;99.90
60473;DHT22;46318;52.716;6.444;2023-01-04T12:01:37;11.60;99.90
60473;DHT22;46318;52.716;6.444;2023-01-04T12:04:08;11.70;99.90
60473;DHT22;46318;52.716;6.444;2023-01-04T12:09:13;11.70;99.90
60473;DHT22;46318;52.716;6.444;2023-01-04T12:14:18;11.70;99.90
60473;DHT22;46318;52.716;6.444;2023-01-04T12:19:24;11.70;99.90
60473;DHT22;46318;52.716;6.444;2023-01-04T12:21:51;11.70;99.90
60473;DHT22;46318;52.716;6.444;2023-01-04T12:24:34;11.70;99.90
60473;DHT22;46318;52.716;6.444;2023-01-04T12:27:01;11.70;99.90
60473;DHT22;46318;52.716;6.444;2023-01-04T12:29:31;11.70;99.90
60473;DHT22;46318;52.716;6.444;2023-01-04T12:34:43;11.70;99.90
60473;DHT22;46318;52.716;6.444;2023-01-04T12:37:11;11.70;99.90
60473;DHT22;46318;52.716;6.444;2023-01-04T12:40:03;11.70;99.90
60473;DHT22;46318;52.716;6.444;2023-01-04T12:45:45;11.70;99.90
60473;DHT22;46318;52.716;6.444;2023-01-04T12:48:34;11.70;99.90
60473;DHT22;46318;52.716;6.444;2023-01-04T12:51:22;11.70;99.90
60473;DHT22;46318;52.716;6.444;2023-01-04T12:53:50;11.70;99.90
60473;DHT22;46318;52.716;6.444;2023-01-04T12:56:57;11.70;99.90
60473;DHT22;46318;52.716;6.444;2023-01-04T12:59:31;11.70;99.90
60473;DHT22;46318;52.716;6.444;2023-01-04T13:02:16;11.70;99.90
60473;DHT22;46318;52.716;6.444;2023-01-04T13:04:45;11.70;99.90
60473;DHT22;46318;52.716;6.444;2023-01-04T13:07:21;11.70;99.90
60473;DHT22;46318;52.716;6.444;2023-01-04T13:09:57;11.70;99.90
60473;DHT22;46318;52.716;6.444;2023-01-04T13:15:03;11.70;99.90
60473;DHT22;46318;52.716;6.444;2023-01-04T13:17:31;11.70;99.90
60473;DHT22;46318;52.716;6.444;2023-01-04T13:20:13;11.80;99.90
60473;DHT22;46318;52.716;6.444;2023-01-04T13:22:46;11.80;99.90
60473;DHT22;46318;52.716;6.444;2023-01-04T13:25:14;11.80;99.90
60473;DHT22;46318;52.716;6.444;2023-01-04T13:28:00;11.80;99.90
60473;DHT22;46318;52.716;6.444;2023-01-04T13:30:28;11.80;99.90
60473;DHT22;46318;52.716;6.444;2023-01-04T13:32:58;11.80;99.90
60473;DHT22;46318;52.716;6.444;2023-01-04T13:35:35;11.80;99.90
60473;DHT22;46318;52.716;6.444;2023-01-04T13:38:02;11.80;99.90
60473;DHT22;46318;52.716;6.444;2023-01-04T13:40:28;11.80;99.90
60473;DHT22;46318;52.716;6.444;2023-01-04T13:48:35;11.90;99.90
60473;DHT22;46318;52.716;6.444;2023-01-04T13:53:54;11.90;99.90
60473;DHT22;46318;52.716;6.444;2023-01-04T13:56:22;11.90;99.90
60473;DHT22;46318;52.716;6.444;2023-01-04T13:58:49;11.90;99.90
60473;DHT22;46318;52.716;6.444;2023-01-04T14:01:20;11.90;99.90
60473;DHT22;46318;52.716;6.444;2023-01-04T14:03:47;11.90;99.90
60473;DHT22;46318;52.716;6.444;2023-01-04T14:06:25;11.90;99.90
60473;DHT22;46318;52.716;6.444;2023-01-04T14:11:39;11.90;99.90
60473;DHT22;46318;52.716;6.444;2023-01-04T14:44:04;11.90;99.90
60473;DHT22;46318;52.716;6.444;2023-01-04T14:46:33;12.00;99.90
60473;DHT22;46318;52.716;6.444;2023-01-04T14:48:59;11.90;99.90
60473;DHT22;46318;52.716;6.444;2023-01-04T14:51:27;11.90;99.90
60473;DHT22;46318;52.716;6.444;2023-01-04T14:53:57;11.90;99.90
60473;DHT22;46318;52.716;6.444;2023-01-04T14:56:23;11.90;99.90
60473;DHT22;46318;52.716;6.444;2023-01-04T14:58:52;11.90;99.90
60473;DHT22;46318;52.716;6.444;2023-01-04T15:01:17;11.90;99.90
60473;DHT22;46318;52.716;6.444;2023-01-04T15:03:43;11.90;99.90
60473;DHT22;46318;52.716;6.444;2023-01-04T15:06:09;11.90;99.90
60473;DHT22;46318;52.716;6.444;2023-01-04T15:08:35;11.90;99.90
60473;DHT22;46318;52.716;6.444;2023-01-04T15:11:00;11.90;99.90
60473;DHT22;46318;52.716;6.444;2023-01-04T15:13:26;11.90;99.90
60473;DHT22;46318;52.716;6.444;2023-01-04T15:15:54;11.90;99.90
60473;DHT22;46318;52.716;6.444;2023-01-04T15:18:20;11.90;99.90
60473;DHT22;46318;52.716;6.444;2023-01-04T15:20:46;11.90;99.90
60473;DHT22;46318;52.716;6.444;2023-01-04T15:23:12;11.80;99.90
60473;DHT22;46318;52.716;6.444;2023-01-04T15:25:38;11.80;99.90
60473;DHT22;46318;52.716;6.444;2023-01-04T15:28:05;11.80;99.90
60473;DHT22;46318;52.716;6.444;2023-01-04T15:30:31;11.80;99.90
60473;DHT22;46318;52.716;6.444;2023-01-04T15:32:57;11.80;99.90
60473;DHT22;46318;52.716;6.444;2023-01-04T15:35:22;11.80;99.90
60473;DHT22;46318;52.716;6.444;2023-01-04T15:37:48;11.80;99.90
60473;DHT22;46318;52.716;6.444;2023-01-04T15:40:15;11.80;99.90
60473;DHT22;46318;52.716;6.444;2023-01-04T15:42:42;11.80;99.90
60473;DHT22;46318;52.716;6.444;2023-01-04T15:47:53;11.80;99.90
60473;DHT22;46318;52.716;6.444;2023-01-04T15:50:22;11.80;99.90
60473;DHT22;46318;52.716;6.444;2023-01-04T15:52:48;11.80;99.90
60473;DHT22;46318;52.716;6.444;2023-01-04T15:55:13;11.80;99.90
60473;DHT22;46318;52.716;6.444;2023-01-04T15:57:39;11.80;99.90
60473;DHT22;46318;52.716;6.444;2023-01-04T16:00:05;11.80;99.90
60473;DHT22;46318;52.716;6.444;2023-01-04T16:02:32;11.70;99.90
60473;DHT22;46318;52.716;6.444;2023-01-04T16:04:57;11.70;99.90
60473;DHT22;46318;52.716;6.444;2023-01-04T16:07:23;11.70;99.90
60473;DHT22;46318;52.716;6.444;2023-01-04T16:09:49;11.70;99.90
60473;DHT22;46318;52.716;6.444;2023-01-04T16:12:15;11.70;99.90
60473;DHT22;46318;52.716;6.444;2023-01-04T16:14:59;11.80;99.90
60473;DHT22;46318;52.716;6.444;2023-01-04T16:17:25;11.70;99.90
60473;DHT22;46318;52.716;6.444;2023-01-04T16:19:51;11.70;99.90
60473;DHT22;46318;52.716;6.444;2023-01-04T16:22:17;11.70;99.90
60473;DHT22;46318;52.716;6.444;2023-01-04T16:24:42;11.70;99.90
60473;DHT22;46318;52.716;6.444;2023-01-04T16:27:08;11.70;99.90
60473;DHT22;46318;52.716;6.444;2023-01-04T16:29:34;11.70;99.90
60473;DHT22;46318;52.716;6.444;2023-01-04T16:32:00;11.70;99.90
60473;DHT22;46318;52.716;6.444;2023-01-04T16:34:26;11.70;99.90
60473;DHT22;46318;52.716;6.444;2023-01-04T16:36:52;11.70;99.90
60473;DHT22;46318;52.716;6.444;2023-01-04T16:39:18;11.60;99.90
60473;DHT22;46318;52.716;6.444;2023-01-04T16:41:44;11.60;99.90
60473;DHT22;46318;52.716;6.444;2023-01-04T16:44:10;11.70;99.90
60473;DHT22;46318;52.716;6.444;2023-01-04T16:46:38;11.60;99.90
60473;DHT22;46318;52.716;6.444;2023-01-04T16:51:38;11.60;99.90
60473;DHT22;46318;52.716;6.444;2023-01-04T16:54:05;11.60;99.90
60473;DHT22;46318;52.716;6.444;2023-01-04T16:56:32;11.60;99.90
60473;DHT22;46318;52.716;6.444;2023-01-04T16:58:58;11.60;99.90
60473;DHT22;46318;52.716;6.444;2023-01-04T17:01:30;11.60;99.90
60473;DHT22;46318;52.716;6.444;2023-01-04T17:03:58;11.60;99.90
60473;DHT22;46318;52.716;6.444;2023-01-04T17:06:29;11.60;99.90
60473;DHT22;46318;52.716;6.444;2023-01-04T17:08:57;11.60;99.90
60473;DHT22;46318;52.716;6.444;2023-01-04T17:11:27;11.60;99.90
60473;DHT22;46318;52.716;6.444;2023-01-04T17:13:54;11.60;99.90
60473;DHT22;46318;52.716;6.444;2023-01-04T17:16:21;11.50;99.90
60473;DHT22;46318;52.716;6.444;2023-01-04T17:18:47;11.50;99.90
60473;DHT22;46318;52.716;6.444;2023-01-04T17:21:14;11.50;99.90
60473;DHT22;46318;52.716;6.444;2023-01-04T17:23:43;11.50;99.90
60473;DHT22;46318;52.716;6.444;2023-01-04T17:26:12;11.50;99.90
60473;DHT22;46318;52.716;6.444;2023-01-04T17:28:39;11.50;99.90
60473;DHT22;46318;52.716;6.444;2023-01-04T17:31:06;11.50;99.90
60473;DHT22;46318;52.716;6.444;2023-01-04T17:33:34;11.40;99.90
60473;DHT22;46318;52.716;6.444;2023-01-04T17:36:03;11.50;99.90
60473;DHT22;46318;52.716;6.444;2023-01-04T17:38:30;11.50;99.90
60473;DHT22;46318;52.716;6.444;2023-01-04T17:41:04;11.50;99.90
60473;DHT22;46318;52.716;6.444;2023-01-04T17:43:31;11.50;99.90
60473;DHT22;46318;52.716;6.444;2023-01-04T17:45:59;11.50;99.90
60473;DHT22;46318;52.716;6.444;2023-01-04T17:48:29;11.40;99.90